sensor_id;sensor_type;location;lat;lon;timestamp;pressure;altitude;pressure_sealevel;temperature
35582;BMP180;21687;48.900;9.188;2023-04-03T00:01:46;99190.00;;;2.50
35582;BMP180;21687;48.900;9.188;2023-04-03T00:04:13;99183.00;;;2.50
35582;BMP180;21687;48.900;9.188;2023-04-03T00:06:39;99168.00;;;2.50
35582;BMP180;21687;48.900;9.188;2023-04-03T00:09:05;99183.00;;;2.50
35582;BMP180;21687;48.900;9.188;2023-04-03T00:11:31;99184.00;;;2.50
35582;BMP180;21687;48.900;9.188;2023-04-03T00:13:58;99178.00;;;2.50
35582;BMP180;21687;48.900;9.188;2023-04-03T00:16:24;99184.00;;;2.50
35582;BMP180;21687;48.900;9.188;2023-04-03T00:18:50;99185.00;;;2.50
35582;BMP180;21687;48.900;9.188;2023-04-03T00:21:16;99189.00;;;2.50
35582;BMP180;21687;48.900;9.188;2023-04-03T00:23:43;99195.00;;;2.40
35582;BMP180;21687;48.900;9.188;2023-04-03T00:26:09;99181.00;;;2.50
35582;BMP180;21687;48.900;9.188;2023-04-03T00:28:35;99183.00;;;2.40
35582;BMP180;21687;48.900;9.188;2023-04-03T00:31:01;99182.00;;;2.50
35582;BMP180;21687;48.900;9.188;2023-04-03T00:33:28;99181.00;;;2.40
35582;BMP180;21687;48.900;9.188;2023-04-03T00:35:54;99186.00;;;2.40
35582;BMP180;21687;48.900;9.188;2023-04-03T00:38:20;99179.00;;;2.40
35582;BMP180;21687;48.900;9.188;2023-04-03T00:40:48;99174.00;;;2.30
35582;BMP180;21687;48.900;9.188;2023-04-03T00:43:19;99183.00;;;2.40
35582;BMP180;21687;48.900;9.188;2023-04-03T00:45:48;99186.00;;;2.40
35582;BMP180;21687;48.900;9.188;2023-04-03T00:48:21;99170.00;;;2.40
35582;BMP180;21687;48.900;9.188;2023-04-03T00:50:49;99177.00;;;2.40
35582;BMP180;21687;48.900;9.188;2023-04-03T00:53:24;99170.00;;;2.40
35582;BMP180;21687;48.900;9.188;2023-04-03T00:55:52;99175.00;;;2.40
35582;BMP180;21687;48.900;9.188;2023-04-03T00:58:21;99180.00;;;2.30
35582;BMP180;21687;48.900;9.188;2023-04-03T01:00:55;99181.00;;;2.30
35582;BMP180;21687;48.900;9.188;2023-04-03T01:03:24;99177.00;;;2.30
35582;BMP180;21687;48.900;9.188;2023-04-03T01:05:50;99171.00;;;2.30
35582;BMP180;21687;48.900;9.188;2023-04-03T01:08:17;99178.00;;;2.30
35582;BMP180;21687;48.900;9.188;2023-04-03T01:10:43;99177.00;;;2.20
35582;BMP180;21687;48.900;9.188;2023-04-03T01:13:31;99168.00;;;2.20
35582;BMP180;21687;48.900;9.188;2023-04-03T01:16:00;99172.00;;;2.20
35582;BMP180;21687;48.900;9.188;2023-04-03T01:18:26;99168.00;;;2.10
35582;BMP180;21687;48.900;9.188;2023-04-03T01:23:57;99167.00;;;2.10
35582;BMP180;21687;48.900;9.188;2023-04-03T01:26:25;99168.00;;;2.10
35582;BMP180;21687;48.900;9.188;2023-04-03T01:28:54;99174.00;;;2.10
35582;BMP180;21687;48.900;9.188;2023-04-03T01:31:38;99179.00;;;2.10
35582;BMP180;21687;48.900;9.188;2023-04-03T01:34:05;99174.00;;;2.10
35582;BMP180;21687;48.900;9.188;2023-04-03T01:36:32;99174.00;;;2.10
35582;BMP180;21687;48.900;9.188;2023-04-03T01:38:59;99175.00;;;2.10
35582;BMP180;21687;48.900;9.188;2023-04-03T01:41:26;99175.00;;;2.10
35582;BMP180;21687;48.900;9.188;2023-04-03T01:43:52;99178.00;;;2.10
35582;BMP180;21687;48.900;9.188;2023-04-03T01:46:20;99183.00;;;2.10
35582;BMP180;21687;48.900;9.188;2023-04-03T01:48:46;99181.00;;;2.10
35582;BMP180;21687;48.900;9.188;2023-04-03T01:51:13;99180.00;;;2.10
35582;BMP180;21687;48.900;9.188;2023-04-03T01:53:39;99188.00;;;2.10
35582;BMP180;21687;48.900;9.188;2023-04-03T01:56:06;99186.00;;;2.10
35582;BMP180;21687;48.900;9.188;2023-04-03T01:58:32;99185.00;;;2.10
35582;BMP180;21687;48.900;9.188;2023-04-03T02:00:58;99184.00;;;2.00
35582;BMP180;21687;48.900;9.188;2023-04-03T02:03:25;99176.00;;;2.10
35582;BMP180;21687;48.900;9.188;2023-04-03T02:05:51;99180.00;;;2.00
35582;BMP180;21687;48.900;9.188;2023-04-03T02:08:17;99187.00;;;2.10
35582;BMP180;21687;48.900;9.188;2023-04-03T02:10:50;99184.00;;;2.10
35582;BMP180;21687;48.900;9.188;2023-04-03T02:13:17;99181.00;;;2.10
35582;BMP180;21687;48.900;9.188;2023-04-03T02:15:43;99190.00;;;2.00
35582;BMP180;21687;48.900;9.188;2023-04-03T02:18:12;99188.00;;;2.10
35582;BMP180;21687;48.900;9.188;2023-04-03T02:20:38;99180.00;;;2.10
35582;BMP180;21687;48.900;9.188;2023-04-03T02:23:05;99181.00;;;2.00
35582;BMP180;21687;48.900;9.188;2023-04-03T02:25:32;99180.00;;;2.00
35582;BMP180;21687;48.900;9.188;2023-04-03T02:27:58;99189.00;;;2.10
35582;BMP180;21687;48.900;9.188;2023-04-03T02:30:25;99184.00;;;2.10
35582;BMP180;21687;48.900;9.188;2023-04-03T02:32:51;99183.00;;;2.10
35582;BMP180;21687;48.900;9.188;2023-04-03T02:35:17;99188.00;;;2.10
35582;BMP180;21687;48.900;9.188;2023-04-03T02:37:44;99192.00;;;2.20
35582;BMP180;21687;48.900;9.188;2023-04-03T02:40:10;99187.00;;;2.20
35582;BMP180;21687;48.900;9.188;2023-04-03T02:42:37;99191.00;;;2.20
35582;BMP180;21687;48.900;9.188;2023-04-03T02:45:04;99186.00;;;2.20
35582;BMP180;21687;48.900;9.188;2023-04-03T02:47:30;99183.00;;;2.20
35582;BMP180;21687;48.900;9.188;2023-04-03T02:49:56;99174.00;;;2.10
35582;BMP180;21687;48.900;9.188;2023-04-03T02:52:23;99178.00;;;2.00
35582;BMP180;21687;48.900;9.188;2023-04-03T02:54:49;99177.00;;;2.00
35582;BMP180;21687;48.900;9.188;2023-04-03T02:57:15;99185.00;;;2.00
35582;BMP180;21687;48.900;9.188;2023-04-03T02:59:41;99145.00;;;2.00
35582;BMP180;21687;48.900;9.188;2023-04-03T03:02:08;99194.00;;;2.00
35582;BMP180;21687;48.900;9.188;2023-04-03T03:04:35;99183.00;;;2.00
35582;BMP180;21687;48.900;9.188;2023-04-03T03:07:02;99190.00;;;2.00
35582;BMP180;21687;48.900;9.188;2023-04-03T03:09:28;99183.00;;;2.00
35582;BMP180;21687;48.900;9.188;2023-04-03T03:11:56;99186.00;;;2.00
35582;BMP180;21687;48.900;9.188;2023-04-03T03:14:22;99188.00;;;2.00
35582;BMP180;21687;48.900;9.188;2023-04-03T03:16:48;99170.00;;;2.10
35582;BMP180;21687;48.900;9.188;2023-04-03T03:19:15;99179.00;;;2.10
35582;BMP180;21687;48.900;9.188;2023-04-03T03:21:41;99173.00;;;2.10
35582;BMP180;21687;48.900;9.188;2023-04-03T03:24:08;99172.00;;;2.10
35582;BMP180;21687;48.900;9.188;2023-04-03T03:26:34;99181.00;;;2.20
35582;BMP180;21687;48.900;9.188;2023-04-03T03:29:00;99142.00;;;2.20
35582;BMP180;21687;48.900;9.188;2023-04-03T03:31:27;99169.00;;;2.20
35582;BMP180;21687;48.900;9.188;2023-04-03T03:33:53;99160.00;;;2.30
35582;BMP180;21687;48.900;9.188;2023-04-03T03:36:19;99178.00;;;2.20
35582;BMP180;21687;48.900;9.188;2023-04-03T03:38:46;99170.00;;;2.30
35582;BMP180;21687;48.900;9.188;2023-04-03T03:41:12;99170.00;;;2.30
35582;BMP180;21687;48.900;9.188;2023-04-03T03:43:38;99176.00;;;2.30
35582;BMP180;21687;48.900;9.188;2023-04-03T03:46:05;99176.00;;;2.30
35582;BMP180;21687;48.900;9.188;2023-04-03T03:48:31;99182.00;;;2.40
35582;BMP180;21687;48.900;9.188;2023-04-03T03:50:57;99179.00;;;2.40
35582;BMP180;21687;48.900;9.188;2023-04-03T03:53:23;99178.00;;;2.40
35582;BMP180;21687;48.900;9.188;2023-04-03T03:55:50;99178.00;;;2.40
35582;BMP180;21687;48.900;9.188;2023-04-03T03:58:16;99176.00;;;2.40
35582;BMP180;21687;48.900;9.188;2023-04-03T04:00:42;99180.00;;;2.40
35582;BMP180;21687;48.900;9.188;2023-04-03T04:03:08;99188.00;;;2.50
35582;BMP180;21687;48.900;9.188;2023-04-03T04:05:35;99197.00;;;2.50
35582;BMP180;21687;48.900;9.188;2023-04-03T04:08:01;99190.00;;;2.40
35582;BMP180;21687;48.900;9.188;2023-04-03T04:10:27;99200.00;;;2.40
35582;BMP180;21687;48.900;9.188;2023-04-03T04:12:53;99190.00;;;2.40
35582;BMP180;21687;48.900;9.188;2023-04-03T04:15:20;99193.00;;;2.40
35582;BMP180;21687;48.900;9.188;2023-04-03T04:17:47;99195.00;;;2.40
35582;BMP180;21687;48.900;9.188;2023-04-03T04:20:13;99187.00;;;2.40
35582;BMP180;21687;48.900;9.188;2023-04-03T04:22:40;99189.00;;;2.40
35582;BMP180;21687;48.900;9.188;2023-04-03T04:25:06;99185.00;;;2.30
35582;BMP180;21687;48.900;9.188;2023-04-03T04:27:33;99183.00;;;2.40
35582;BMP180;21687;48.900;9.188;2023-04-03T04:29:59;99185.00;;;2.30
35582;BMP180;21687;48.900;9.188;2023-04-03T04:32:25;99194.00;;;2.30
35582;BMP180;21687;48.900;9.188;2023-04-03T04:34:51;99176.00;;;2.30
35582;BMP180;21687;48.900;9.188;2023-04-03T04:37:18;99190.00;;;2.30
35582;BMP180;21687;48.900;9.188;2023-04-03T04:39:44;99188.00;;;2.30
35582;BMP180;21687;48.900;9.188;2023-04-03T04:42:10;99187.00;;;2.40
35582;BMP180;21687;48.900;9.188;2023-04-03T04:44:39;99196.00;;;2.40
35582;BMP180;21687;48.900;9.188;2023-04-03T04:47:05;99194.00;;;2.40
35582;BMP180;21687;48.900;9.188;2023-04-03T04:49:32;99194.00;;;2.30
35582;BMP180;21687;48.900;9.188;2023-04-03T04:51:58;99187.00;;;2.30
35582;BMP180;21687;48.900;9.188;2023-04-03T04:54:25;99189.00;;;2.40
35582;BMP180;21687;48.900;9.188;2023-04-03T04:56:51;99202.00;;;2.30
35582;BMP180;21687;48.900;9.188;2023-04-03T04:59:17;99201.00;;;2.30
35582;BMP180;21687;48.900;9.188;2023-04-03T05:01:43;99198.00;;;2.30
35582;BMP180;21687;48.900;9.188;2023-04-03T05:04:11;99204.00;;;2.20
35582;BMP180;21687;48.900;9.188;2023-04-03T05:06:38;99206.00;;;2.20
35582;BMP180;21687;48.900;9.188;2023-04-03T05:09:04;99217.00;;;2.10
35582;BMP180;21687;48.900;9.188;2023-04-03T05:11:31;99203.00;;;2.10
35582;BMP180;21687;48.900;9.188;2023-04-03T05:13:57;99221.00;;;2.10
35582;BMP180;21687;48.900;9.188;2023-04-03T05:16:23;99225.00;;;1.90
35582;BMP180;21687;48.900;9.188;2023-04-03T05:18:50;99214.00;;;1.90
35582;BMP180;21687;48.900;9.188;2023-04-03T05:21:16;99217.00;;;1.90
35582;BMP180;21687;48.900;9.188;2023-04-03T05:23:44;99221.00;;;1.90
35582;BMP180;21687;48.900;9.188;2023-04-03T05:26:10;99221.00;;;1.90
35582;BMP180;21687;48.900;9.188;2023-04-03T05:28:36;99217.00;;;1.80
35582;BMP180;21687;48.900;9.188;2023-04-03T05:31:03;99220.00;;;1.80
35582;BMP180;21687;48.900;9.188;2023-04-03T05:33:29;99225.00;;;1.80
35582;BMP180;21687;48.900;9.188;2023-04-03T05:35:55;99226.00;;;1.80
35582;BMP180;21687;48.900;9.188;2023-04-03T05:38:22;99230.00;;;1.80
35582;BMP180;21687;48.900;9.188;2023-04-03T05:40:48;99227.00;;;1.70
35582;BMP180;21687;48.900;9.188;2023-04-03T05:43:14;99235.00;;;1.80
35582;BMP180;21687;48.900;9.188;2023-04-03T05:45:42;99232.00;;;1.80
35582;BMP180;21687;48.900;9.188;2023-04-03T05:48:08;99231.00;;;1.80
35582;BMP180;21687;48.900;9.188;2023-04-03T05:50:35;99223.00;;;1.90
35582;BMP180;21687;48.900;9.188;2023-04-03T05:53:12;99223.00;;;2.00
35582;BMP180;21687;48.900;9.188;2023-04-03T05:55:41;99234.00;;;2.10
35582;BMP180;21687;48.900;9.188;2023-04-03T05:58:07;99231.00;;;2.10
35582;BMP180;21687;48.900;9.188;2023-04-03T06:00:33;99240.00;;;2.10
35582;BMP180;21687;48.900;9.188;2023-04-03T06:02:59;99238.00;;;2.20
35582;BMP180;21687;48.900;9.188;2023-04-03T06:05:26;99237.00;;;2.30
35582;BMP180;21687;48.900;9.188;2023-04-03T06:07:52;99244.00;;;2.30
35582;BMP180;21687;48.900;9.188;2023-04-03T06:10:19;99244.00;;;2.40
35582;BMP180;21687;48.900;9.188;2023-04-03T06:12:46;99248.00;;;2.40
35582;BMP180;21687;48.900;9.188;2023-04-03T06:15:12;99254.00;;;2.50
35582;BMP180;21687;48.900;9.188;2023-04-03T06:17:38;99245.00;;;2.30
35582;BMP180;21687;48.900;9.188;2023-04-03T06:20:05;99247.00;;;2.40
35582;BMP180;21687;48.900;9.188;2023-04-03T06:22:31;99262.00;;;2.40
35582;BMP180;21687;48.900;9.188;2023-04-03T06:24:58;99251.00;;;2.40
35582;BMP180;21687;48.900;9.188;2023-04-03T06:27:24;99256.00;;;2.40
35582;BMP180;21687;48.900;9.188;2023-04-03T06:29:51;99260.00;;;2.40
35582;BMP180;21687;48.900;9.188;2023-04-03T06:32:17;99264.00;;;2.50
35582;BMP180;21687;48.900;9.188;2023-04-03T06:34:43;99256.00;;;2.50
35582;BMP180;21687;48.900;9.188;2023-04-03T06:37:22;99263.00;;;2.60
35582;BMP180;21687;48.900;9.188;2023-04-03T06:39:48;99266.00;;;2.60
35582;BMP180;21687;48.900;9.188;2023-04-03T06:42:15;99267.00;;;2.60
35582;BMP180;21687;48.900;9.188;2023-04-03T06:44:42;99257.00;;;2.90
35582;BMP180;21687;48.900;9.188;2023-04-03T06:47:11;99258.00;;;2.80
35582;BMP180;21687;48.900;9.188;2023-04-03T06:49:38;99271.00;;;2.70
35582;BMP180;21687;48.900;9.188;2023-04-03T06:52:05;99275.00;;;2.80
35582;BMP180;21687;48.900;9.188;2023-04-03T06:54:31;99281.00;;;2.80
35582;BMP180;21687;48.900;9.188;2023-04-03T06:56:58;99283.00;;;2.80
35582;BMP180;21687;48.900;9.188;2023-04-03T06:59:25;99280.00;;;2.90
35582;BMP180;21687;48.900;9.188;2023-04-03T07:01:52;99284.00;;;2.80
35582;BMP180;21687;48.900;9.188;2023-04-03T07:04:18;99285.00;;;3.00
35582;BMP180;21687;48.900;9.188;2023-04-03T07:06:46;99284.00;;;3.00
35582;BMP180;21687;48.900;9.188;2023-04-03T07:09:14;99288.00;;;3.10
35582;BMP180;21687;48.900;9.188;2023-04-03T07:11:40;99276.00;;;3.30
35582;BMP180;21687;48.900;9.188;2023-04-03T07:14:07;99293.00;;;3.40
35582;BMP180;21687;48.900;9.188;2023-04-03T07:16:35;99290.00;;;3.50
35582;BMP180;21687;48.900;9.188;2023-04-03T07:19:02;99291.00;;;3.40
35582;BMP180;21687;48.900;9.188;2023-04-03T07:21:29;99297.00;;;3.30
35582;BMP180;21687;48.900;9.188;2023-04-03T07:23:55;99290.00;;;3.30
35582;BMP180;21687;48.900;9.188;2023-04-03T07:26:22;99305.00;;;3.30
35582;BMP180;21687;48.900;9.188;2023-04-03T07:28:49;99300.00;;;3.30
35582;BMP180;21687;48.900;9.188;2023-04-03T07:31:16;99317.00;;;3.50
35582;BMP180;21687;48.900;9.188;2023-04-03T07:33:44;99305.00;;;3.60
35582;BMP180;21687;48.900;9.188;2023-04-03T07:36:16;99318.00;;;3.70
35582;BMP180;21687;48.900;9.188;2023-04-03T07:38:43;99308.00;;;3.60
35582;BMP180;21687;48.900;9.188;2023-04-03T07:41:15;99306.00;;;3.70
35582;BMP180;21687;48.900;9.188;2023-04-03T07:43:44;99325.00;;;3.80
35582;BMP180;21687;48.900;9.188;2023-04-03T07:46:11;99278.00;;;3.80
35582;BMP180;21687;48.900;9.188;2023-04-03T07:48:38;99317.00;;;3.90
35582;BMP180;21687;48.900;9.188;2023-04-03T07:51:05;99341.00;;;3.90
35582;BMP180;21687;48.900;9.188;2023-04-03T07:53:32;99327.00;;;3.90
35582;BMP180;21687;48.900;9.188;2023-04-03T07:56:00;99319.00;;;4.00
35582;BMP180;21687;48.900;9.188;2023-04-03T07:58:28;99320.00;;;3.90
35582;BMP180;21687;48.900;9.188;2023-04-03T08:00:55;99326.00;;;4.00
35582;BMP180;21687;48.900;9.188;2023-04-03T08:03:22;99320.00;;;4.10
35582;BMP180;21687;48.900;9.188;2023-04-03T08:05:49;99332.00;;;4.10
35582;BMP180;21687;48.900;9.188;2023-04-03T08:08:18;99322.00;;;4.40
35582;BMP180;21687;48.900;9.188;2023-04-03T08:10:49;99332.00;;;4.30
35582;BMP180;21687;48.900;9.188;2023-04-03T08:13:16;99325.00;;;4.40
35582;BMP180;21687;48.900;9.188;2023-04-03T08:15:42;99328.00;;;4.50
35582;BMP180;21687;48.900;9.188;2023-04-03T08:18:09;99342.00;;;4.60
35582;BMP180;21687;48.900;9.188;2023-04-03T08:20:37;99326.00;;;4.30
35582;BMP180;21687;48.900;9.188;2023-04-03T08:23:03;99333.00;;;4.70
35582;BMP180;21687;48.900;9.188;2023-04-03T08:25:29;99332.00;;;4.90
35582;BMP180;21687;48.900;9.188;2023-04-03T08:27:56;99332.00;;;4.70
35582;BMP180;21687;48.900;9.188;2023-04-03T08:30:22;99324.00;;;4.70
35582;BMP180;21687;48.900;9.188;2023-04-03T08:32:48;99310.00;;;4.50
35582;BMP180;21687;48.900;9.188;2023-04-03T08:35:14;99319.00;;;4.40
35582;BMP180;21687;48.900;9.188;2023-04-03T08:37:41;99321.00;;;4.50
35582;BMP180;21687;48.900;9.188;2023-04-03T08:40:12;99330.00;;;5.00
35582;BMP180;21687;48.900;9.188;2023-04-03T08:45:30;99325.00;;;4.90
35582;BMP180;21687;48.900;9.188;2023-04-03T08:48:06;99328.00;;;4.80
35582;BMP180;21687;48.900;9.188;2023-04-03T08:50:41;99324.00;;;5.00
35582;BMP180;21687;48.900;9.188;2023-04-03T08:53:26;99334.00;;;5.10
35582;BMP180;21687;48.900;9.188;2023-04-03T08:55:55;99338.00;;;4.90
35582;BMP180;21687;48.900;9.188;2023-04-03T08:58:30;99325.00;;;4.90
35582;BMP180;21687;48.900;9.188;2023-04-03T09:01:49;99346.00;;;4.90
35582;BMP180;21687;48.900;9.188;2023-04-03T09:04:16;99339.00;;;5.00
35582;BMP180;21687;48.900;9.188;2023-04-03T09:06:55;99338.00;;;5.20
35582;BMP180;21687;48.900;9.188;2023-04-03T09:09:34;99335.00;;;5.40
35582;BMP180;21687;48.900;9.188;2023-04-03T09:17:28;99329.00;;;5.40
35582;BMP180;21687;48.900;9.188;2023-04-03T09:22:47;99331.00;;;5.90
35582;BMP180;21687;48.900;9.188;2023-04-03T09:25:38;99339.00;;;6.10
35582;BMP180;21687;48.900;9.188;2023-04-03T09:28:05;99331.00;;;6.40
35582;BMP180;21687;48.900;9.188;2023-04-03T09:30:35;99330.00;;;5.90
35582;BMP180;21687;48.900;9.188;2023-04-03T09:33:03;99332.00;;;5.80
35582;BMP180;21687;48.900;9.188;2023-04-03T09:35:31;99326.00;;;5.90
35582;BMP180;21687;48.900;9.188;2023-04-03T09:40:40;99325.00;;;6.30
35582;BMP180;21687;48.900;9.188;2023-04-03T09:43:25;99332.00;;;6.00
35582;BMP180;21687;48.900;9.188;2023-04-03T09:45:53;99333.00;;;5.70
35582;BMP180;21687;48.900;9.188;2023-04-03T09:48:22;99327.00;;;5.60
35582;BMP180;21687;48.900;9.188;2023-04-03T09:50:53;99328.00;;;5.60
35582;BMP180;21687;48.900;9.188;2023-04-03T09:53:43;99330.00;;;5.60
35582;BMP180;21687;48.900;9.188;2023-04-03T09:58:44;99333.00;;;5.70
35582;BMP180;21687;48.900;9.188;2023-04-03T10:01:32;99345.00;;;5.80
35582;BMP180;21687;48.900;9.188;2023-04-03T10:06:47;99334.00;;;5.70
35582;BMP180;21687;48.900;9.188;2023-04-03T10:14:35;99336.00;;;5.70
35582;BMP180;21687;48.900;9.188;2023-04-03T10:17:17;99294.00;;;5.40
35582;BMP180;21687;48.900;9.188;2023-04-03T10:19:53;99325.00;;;5.60
35582;BMP180;21687;48.900;9.188;2023-04-03T10:22:35;99316.00;;;5.60
35582;BMP180;21687;48.900;9.188;2023-04-03T10:27:53;99319.00;;;6.10
35582;BMP180;21687;48.900;9.188;2023-04-03T10:30:27;99325.00;;;6.50
35582;BMP180;21687;48.900;9.188;2023-04-03T10:38:51;99313.00;;;6.30
35582;BMP180;21687;48.900;9.188;2023-04-03T10:47:21;99295.00;;;6.20
35582;BMP180;21687;48.900;9.188;2023-04-03T10:50:12;99317.00;;;6.10
35582;BMP180;21687;48.900;9.188;2023-04-03T10:53:01;99309.00;;;6.00
35582;BMP180;21687;48.900;9.188;2023-04-03T10:55:48;99320.00;;;6.20
35582;BMP180;21687;48.900;9.188;2023-04-03T10:58:31;99324.00;;;6.20
35582;BMP180;21687;48.900;9.188;2023-04-03T11:01:35;99317.00;;;6.00
35582;BMP180;21687;48.900;9.188;2023-04-03T11:03:57;99315.00;;;5.90
35582;BMP180;21687;48.900;9.188;2023-04-03T11:06:26;99324.00;;;5.80
35582;BMP180;21687;48.900;9.188;2023-04-03T11:09:26;99309.00;;;5.70
35582;BMP180;21687;48.900;9.188;2023-04-03T11:12:28;99318.00;;;5.90
35582;BMP180;21687;48.900;9.188;2023-04-03T11:14:49;99305.00;;;5.80
35582;BMP180;21687;48.900;9.188;2023-04-03T11:20:31;99314.00;;;5.70
35582;BMP180;21687;48.900;9.188;2023-04-03T11:23:21;99315.00;;;5.50
35582;BMP180;21687;48.900;9.188;2023-04-03T11:25:53;99328.00;;;5.60
35582;BMP180;21687;48.900;9.188;2023-04-03T11:28:21;99324.00;;;5.60
35582;BMP180;21687;48.900;9.188;2023-04-03T11:31:32;99313.00;;;5.70
35582;BMP180;21687;48.900;9.188;2023-04-03T11:34:25;99308.00;;;5.70
35582;BMP180;21687;48.900;9.188;2023-04-03T11:36:56;99307.00;;;5.70
35582;BMP180;21687;48.900;9.188;2023-04-03T11:39:35;99315.00;;;6.00
35582;BMP180;21687;48.900;9.188;2023-04-03T11:44:42;99310.00;;;5.70
35582;BMP180;21687;48.900;9.188;2023-04-03T11:47:10;99310.00;;;5.80
35582;BMP180;21687;48.900;9.188;2023-04-03T11:49:57;99308.00;;;5.70
35582;BMP180;21687;48.900;9.188;2023-04-03T12:05:55;99293.00;;;5.90
35582;BMP180;21687;48.900;9.188;2023-04-03T12:08:27;99283.00;;;5.90
35582;BMP180;21687;48.900;9.188;2023-04-03T12:16:28;99281.00;;;6.40
35582;BMP180;21687;48.900;9.188;2023-04-03T12:18:55;99274.00;;;6.40
35582;BMP180;21687;48.900;9.188;2023-04-03T12:45:26;99264.00;;;6.60
35582;BMP180;21687;48.900;9.188;2023-04-03T12:47:56;99264.00;;;6.50
35582;BMP180;21687;48.900;9.188;2023-04-03T12:50:30;99254.00;;;6.40
35582;BMP180;21687;48.900;9.188;2023-04-03T12:53:16;99259.00;;;6.50
35582;BMP180;21687;48.900;9.188;2023-04-03T12:55:44;99255.00;;;6.20
35582;BMP180;21687;48.900;9.188;2023-04-03T12:58:24;99253.00;;;6.10
35582;BMP180;21687;48.900;9.188;2023-04-03T13:01:10;99252.00;;;6.10
35582;BMP180;21687;48.900;9.188;2023-04-03T13:03:40;99257.00;;;6.20
35582;BMP180;21687;48.900;9.188;2023-04-03T13:06:19;99247.00;;;6.40
35582;BMP180;21687;48.900;9.188;2023-04-03T13:08:56;99248.00;;;6.40
35582;BMP180;21687;48.900;9.188;2023-04-03T13:11:30;99257.00;;;6.50
35582;BMP180;21687;48.900;9.188;2023-04-03T13:13:57;99252.00;;;6.50
35582;BMP180;21687;48.900;9.188;2023-04-03T13:16:24;99248.00;;;6.60
35582;BMP180;21687;48.900;9.188;2023-04-03T13:18:52;99247.00;;;6.50
35582;BMP180;21687;48.900;9.188;2023-04-03T13:21:22;99243.00;;;6.80
35582;BMP180;21687;48.900;9.188;2023-04-03T13:23:53;99229.00;;;6.70
35582;BMP180;21687;48.900;9.188;2023-04-03T13:26:22;99245.00;;;7.10
35582;BMP180;21687;48.900;9.188;2023-04-03T13:28:50;99249.00;;;6.90
35582;BMP180;21687;48.900;9.188;2023-04-03T13:31:23;99244.00;;;6.80
35582;BMP180;21687;48.900;9.188;2023-04-03T13:36:41;99242.00;;;6.70
35582;BMP180;21687;48.900;9.188;2023-04-03T13:41:51;99237.00;;;6.70
35582;BMP180;21687;48.900;9.188;2023-04-03T13:46:50;99231.00;;;7.00
35582;BMP180;21687;48.900;9.188;2023-04-03T13:51:49;99239.00;;;6.70
35582;BMP180;21687;48.900;9.188;2023-04-03T13:54:37;99239.00;;;6.70
35582;BMP180;21687;48.900;9.188;2023-04-03T13:57:11;99240.00;;;6.80
35582;BMP180;21687;48.900;9.188;2023-04-03T13:59:38;99235.00;;;6.80
35582;BMP180;21687;48.900;9.188;2023-04-03T14:02:10;99239.00;;;6.80
35582;BMP180;21687;48.900;9.188;2023-04-03T14:04:45;99242.00;;;6.70
35582;BMP180;21687;48.900;9.188;2023-04-03T14:07:13;99238.00;;;6.60
35582;BMP180;21687;48.900;9.188;2023-04-03T14:09:39;99235.00;;;6.50
35582;BMP180;21687;48.900;9.188;2023-04-03T14:14:40;99245.00;;;6.70
35582;BMP180;21687;48.900;9.188;2023-04-03T14:17:21;99232.00;;;6.80
35582;BMP180;21687;48.900;9.188;2023-04-03T14:19:49;99232.00;;;6.90
35582;BMP180;21687;48.900;9.188;2023-04-03T14:24:44;99229.00;;;6.70
35582;BMP180;21687;48.900;9.188;2023-04-03T14:27:19;99225.00;;;6.50
35582;BMP180;21687;48.900;9.188;2023-04-03T14:29:46;99228.00;;;6.40
35582;BMP180;21687;48.900;9.188;2023-04-03T14:32:14;99235.00;;;6.40
35582;BMP180;21687;48.900;9.188;2023-04-03T14:34:42;99216.00;;;6.40
35582;BMP180;21687;48.900;9.188;2023-04-03T14:37:18;99219.00;;;6.50
35582;BMP180;21687;48.900;9.188;2023-04-03T14:39:45;99229.00;;;6.60
35582;BMP180;21687;48.900;9.188;2023-04-03T14:42:14;99221.00;;;6.80
35582;BMP180;21687;48.900;9.188;2023-04-03T14:44:41;99225.00;;;6.60
35582;BMP180;21687;48.900;9.188;2023-04-03T14:47:11;99226.00;;;6.60
35582;BMP180;21687;48.900;9.188;2023-04-03T14:49:38;99217.00;;;6.60
35582;BMP180;21687;48.900;9.188;2023-04-03T14:52:05;99222.00;;;6.30
35582;BMP180;21687;48.900;9.188;2023-04-03T14:54:31;99218.00;;;6.00
35582;BMP180;21687;48.900;9.188;2023-04-03T14:56:59;99222.00;;;6.00
35582;BMP180;21687;48.900;9.188;2023-04-03T14:59:27;99209.00;;;5.90
35582;BMP180;21687;48.900;9.188;2023-04-03T15:01:54;99210.00;;;5.90
35582;BMP180;21687;48.900;9.188;2023-04-03T15:04:21;99213.00;;;5.90
35582;BMP180;21687;48.900;9.188;2023-04-03T15:06:47;99206.00;;;6.10
35582;BMP180;21687;48.900;9.188;2023-04-03T15:09:26;99197.00;;;6.50
35582;BMP180;21687;48.900;9.188;2023-04-03T15:11:54;99206.00;;;6.60
35582;BMP180;21687;48.900;9.188;2023-04-03T15:14:21;99217.00;;;6.70
35582;BMP180;21687;48.900;9.188;2023-04-03T15:16:48;99209.00;;;6.70
35582;BMP180;21687;48.900;9.188;2023-04-03T15:19:14;99224.00;;;6.50
35582;BMP180;21687;48.900;9.188;2023-04-03T15:21:41;99227.00;;;6.20
35582;BMP180;21687;48.900;9.188;2023-04-03T15:24:08;99208.00;;;5.90
35582;BMP180;21687;48.900;9.188;2023-04-03T15:26:34;99219.00;;;5.70
35582;BMP180;21687;48.900;9.188;2023-04-03T15:29:01;99220.00;;;5.50
35582;BMP180;21687;48.900;9.188;2023-04-03T15:31:28;99230.00;;;5.30
35582;BMP180;21687;48.900;9.188;2023-04-03T15:33:54;99213.00;;;5.40
35582;BMP180;21687;48.900;9.188;2023-04-03T15:36:20;99212.00;;;5.60
35582;BMP180;21687;48.900;9.188;2023-04-03T15:38:47;99201.00;;;5.80
35582;BMP180;21687;48.900;9.188;2023-04-03T15:41:13;99200.00;;;6.00
35582;BMP180;21687;48.900;9.188;2023-04-03T15:43:39;99204.00;;;6.20
35582;BMP180;21687;48.900;9.188;2023-04-03T15:46:06;99204.00;;;6.30
35582;BMP180;21687;48.900;9.188;2023-04-03T15:48:32;99198.00;;;6.50
35582;BMP180;21687;48.900;9.188;2023-04-03T15:50:59;99208.00;;;6.50
35582;BMP180;21687;48.900;9.188;2023-04-03T15:53:25;99210.00;;;6.30
35582;BMP180;21687;48.900;9.188;2023-04-03T15:55:52;99214.00;;;6.10
35582;BMP180;21687;48.900;9.188;2023-04-03T15:58:18;99203.00;;;5.90
35582;BMP180;21687;48.900;9.188;2023-04-03T16:00:45;99198.00;;;5.70
35582;BMP180;21687;48.900;9.188;2023-04-03T16:03:19;99208.00;;;5.60
35582;BMP180;21687;48.900;9.188;2023-04-03T16:05:46;99208.00;;;5.50
35582;BMP180;21687;48.900;9.188;2023-04-03T16:08:13;99209.00;;;5.40
35582;BMP180;21687;48.900;9.188;2023-04-03T16:10:40;99204.00;;;5.40
35582;BMP180;21687;48.900;9.188;2023-04-03T16:13:06;99193.00;;;5.50
35582;BMP180;21687;48.900;9.188;2023-04-03T16:15:34;99207.00;;;5.60
35582;BMP180;21687;48.900;9.188;2023-04-03T16:18:00;99205.00;;;5.80
35582;BMP180;21687;48.900;9.188;2023-04-03T16:20:27;99211.00;;;6.00